Milvauchia, WI

06:49 AM CDT die 28o April, anno 2015 (GMT -0500)
Riverwest | | Change Station
CLOSE
Current Station
Personal Weather Stations
Location: Milwaukee, WI
Elevation: 698 ft
Nearby Weather Stations

Elev 698 ft 43.07 °N, 87.90 °W | Updated 7 seconds ago

Serena
Serena
39.2 °F
Feels Like 39 °F
N
0.0
Ventus Variabilis Ventus from Aquilo
Gusts 0.0 mph

Hodie
High -- | Low -- °F
--% Chance of Precip.
Yesterday
High -- | Low -- °F
Precip. -- in
5:50 AM 7:49 PM
Waxing Gibbous, 73% visible
Pressio 30.18 in
Visibilitas 10.0 milia passuum
Clouds Serena
Frigus Venti 39 °F
Frigus in quo Ros apparet 32 °F
Umor 74%
Rainfall 0.00 in
Snow Depth Not available.
UV 0 out of 12
Pollen 10.30 out of 12
Air Quality Not available.
Flu Activity Local Activity
METAR KMKE 281052Z 33003KT 10SM CLR 04/M01 A3016 RMK AO2 SLP219 T00391006

More Conditions Fewer Conditions

Pressio 30.18 in
Visibilitas 10.0 milia passuum
Clouds Serena
Frigus Venti 39 °F
Frigus in quo Ros apparet 32 °F
Umor 74%
Rainfall 0.00 in
Snow Depth Not available.
UV 0 out of 12
Pollen 10.30 out of 12
Air Quality Not available.
Flu Activity Local Activity
METAR KMKE 281052Z 33003KT 10SM CLR 04/M01 A3016 RMK AO2 SLP219 T00391006

More Conditions Fewer Conditions

10-Day Weather Forecast

Almanac

Astronomy

Apr. 28, 2015 Rise Set
Actual Time
Civil Twilight
Nautical Twilight
Astronomical Twilight
Moon
Length Of Visible Light
Length of Day
Tomorrow will be .
, % of the Moon is Illuminated

Today's Extremes

State Highs State Lows

Community

WunderPhotos

Upload Photos

1,817,610 photos uploaded!

WunderBlogs® & News

Nearby

Air Quality

  Air Quality AQ Index Pollutant
Not available.

Snow Depth

Station Depth Elevation

Earthquake Activity

City Distance Mag. Time & Date
Minimum magnitude displayed is 2.5.

Coastal Water Temperatures

Locus Calor

Stations

Nearby Weather Stations

Station Location Temp Frigus Venti Frigus in quo Ros apparet Umor Ventus Precip. Elev Renovata Type